Purdum, Nebraska
Current Conditions -  °F | °C
As of 5:15 AM on Friday 24 Oct 2014 (Local Time) from KTIF Reporting Station
Clear Clear  
Wind Chill: 46°   Ceiling: Unl
Heat Index: 48°   Visibility: 10mi
Dew Point: 38°   Wind: 5mph
Humidity: 68%   Direction: 250°WSW
Pressure: 29.95"   Gusts: NA
Location:  42.06°N, 100.25°W
Report Text: KTIF 241015Z AUTO 25004KT 10SM CLR 09/03 A2995 RMK AO2 T00900033
Loading
Personal Weather Stations






























Interactive Weather Map
Tropical Storm Tracking
New forecast layout! Learn more

10-Day Weather Forecast

Advertisements
Track Severe Weather on mobile